Cando, ND

9:03 PM CST on January 24, 2017 (GMT -0600)
Cando

Weather History for K9D7 - November, 2013

Change the Weather History Date:

Wednesday, November 13, 2013

  Actual Average (KDVL) Record (KDVL)
Temperature  
Mean Temperature 41 °F -  
Max Temperature 50 °F 34 °F 61 °F (1953)
Min Temperature 32 °F 19 °F -7 °F (1986)
Degree Days  
Heating Degree Days 24    
Moisture  
Dew Point 30 °F    
Average Humidity 70    
Maximum Humidity 87    
Minimum Humidity 50    
Precipitation  
Precipitation 0.00 in - - ()
Sea Level Pressure  
Sea Level Pressure 29.83 in    
Wind  
Wind Speed 14 mph (West)    
Max Wind Speed 21 mph    
Max Gust Speed 29 mph    
Visibility 10 miles    
Events      
Averages and records for this station are not official NWS values.
T = Trace of Precipitation, MM = Missing Value Source: NWS Daily Summary

Daily Weather History Graph

Daily Weather History Graph

Search for Another Location

Airport or City:

Trip Planner

Search our weather history database for the weather conditions in past years. The results will help you decide how hot, cold, wet, or windy it might be!

Date:

Astronomy

Nov. 13, 2013 Rise Set
Actual Time 7:42 AM CST 4:59 PM CST
Civil Twilight 7:08 AM CST 5:33 PM CST
Nautical Twilight 6:30 AM CST 6:11 PM CST
Astronomical Twilight 5:53 AM CST 6:48 PM CST
Moon 3:03 PM CST (11/13) 3:18 AM CST (11/13)
Length of Visible Light 10h 25m
Length of Day
9h 17m
Waxing Gibbous, 85% of the Moon is Illuminated
Nov 13
Waxing Gibbous
Nov 17
Full
Nov 25
Last Quarter
Dec 2
New
Dec 9
First Quarter

Hourly Weather History & Observations

Time (CST) Temp. Windchill Dew Point Humidity Pressure Visibility Wind Dir Wind Speed Gust Speed Precip Events Conditions
12:15 AM 32.0 °F 23.6 °F 24.8 °F 75% 30.00 in 10.0 mi SW 10.4 mph - N/A   Clear
12:35 AM 32.0 °F 22.1 °F 26.6 °F 80% 29.97 in 10.0 mi SSW 13.8 mph 17.3 mph N/A   Clear
12:55 AM 32.0 °F 21.6 °F 26.6 °F 80% 29.96 in 10.0 mi SW 15.0 mph 20.7 mph N/A   Clear
1:15 AM 32.0 °F 22.1 °F 26.6 °F 80% 29.95 in 10.0 mi SW 13.8 mph - N/A   Clear
1:35 AM 32.0 °F 21.6 °F 26.6 °F 80% 29.93 in 10.0 mi SW 15.0 mph - N/A   Clear
1:55 AM 32.0 °F 21.2 °F 26.6 °F 80% 29.93 in 10.0 mi SW 16.1 mph 21.9 mph N/A   Clear
2:15 AM 32.0 °F 22.5 °F 26.6 °F 80% 29.92 in 10.0 mi SW 12.7 mph 19.6 mph N/A   Clear
2:35 AM 32.0 °F 23.0 °F 26.6 °F 80% 29.91 in 10.0 mi SW 11.5 mph - N/A   Clear
2:55 AM 33.8 °F 24.3 °F 26.6 °F 75% 29.89 in 10.0 mi SW 13.8 mph 18.4 mph N/A   Clear
3:15 AM 33.8 °F 24.3 °F 28.4 °F 81% 29.88 in 10.0 mi SW 13.8 mph - N/A   Clear
3:35 AM 33.8 °F 25.3 °F 28.4 °F 81% 29.87 in 10.0 mi WSW 11.5 mph - N/A   Clear
3:55 AM 32.0 °F 23.6 °F 28.4 °F 87% 29.86 in 10.0 mi WSW 10.4 mph - N/A   Clear
4:15 AM 33.8 °F 24.3 °F 28.4 °F 81% 29.85 in 10.0 mi WSW 13.8 mph - N/A   Clear
4:35 AM 33.8 °F 25.3 °F 28.4 °F 81% 29.85 in 10.0 mi WSW 11.5 mph - N/A   Clear
4:55 AM 33.8 °F 24.8 °F 28.4 °F 81% 29.83 in 10.0 mi WSW 12.7 mph - N/A   Clear
5:15 AM 33.8 °F 24.8 °F 28.4 °F 81% 29.82 in 10.0 mi WSW 12.7 mph - N/A   Clear
5:35 AM 33.8 °F 24.8 °F 28.4 °F 81% 29.80 in 10.0 mi WSW 12.7 mph - N/A   Clear
5:55 AM 33.8 °F 24.3 °F 28.4 °F 81% 29.80 in 10.0 mi WSW 13.8 mph 20.7 mph N/A   Clear
6:15 AM 35.6 °F 26.2 °F 28.4 °F 75% 29.79 in 10.0 mi WSW 15.0 mph - N/A   Clear
6:35 AM 35.6 °F 25.2 °F 28.4 °F 75% 29.79 in 10.0 mi West 18.4 mph - N/A   Clear
6:55 AM 35.6 °F 24.8 °F 30.2 °F 81% 29.79 in 10.0 mi West 19.6 mph - N/A   Clear
7:15 AM 37.4 °F 26.9 °F 30.2 °F 75% 29.79 in 10.0 mi West 20.7 mph 25.3 mph N/A   Clear
7:35 AM 37.4 °F 27.5 °F 32.0 °F 81% 29.79 in 10.0 mi West 18.4 mph - N/A   Clear
7:55 AM 39.2 °F 30.5 °F 32.0 °F 75% 29.79 in 10.0 mi West 16.1 mph 24.2 mph N/A   Clear
8:15 AM 39.2 °F 30.2 °F 32.0 °F 75% 29.79 in 10.0 mi West 17.3 mph 21.9 mph N/A   Clear
8:35 AM 39.2 °F 29.8 °F 32.0 °F 75% 29.78 in 10.0 mi West 18.4 mph 21.9 mph N/A   Clear
8:55 AM 39.2 °F 29.6 °F 32.0 °F 75% 29.78 in 10.0 mi West 19.6 mph 24.2 mph N/A   Clear
9:15 AM 41.0 °F 31.9 °F 32.0 °F 70% 29.79 in 10.0 mi West 19.6 mph 26.5 mph N/A   Clear
9:35 AM 41.0 °F 31.9 °F 32.0 °F 70% 29.79 in 10.0 mi West 19.6 mph 26.5 mph N/A   Clear
9:55 AM 44.6 °F 36.6 °F 33.8 °F 66% 29.79 in 10.0 mi West 19.6 mph 28.8 mph N/A   Clear
10:15 AM 44.6 °F 36.9 °F 33.8 °F 66% 29.79 in 10.0 mi West 18.4 mph 27.6 mph N/A   Clear
10:35 AM 46.4 °F 39.0 °F 32.0 °F 57% 29.80 in 10.0 mi WNW 19.6 mph 25.3 mph N/A   Clear
10:55 AM 44.6 °F 37.4 °F 32.0 °F 61% 29.82 in 10.0 mi West 16.1 mph 23.0 mph N/A   Clear
11:15 AM 46.4 °F 39.2 °F 32.0 °F 57% 29.81 in 10.0 mi West 18.4 mph 25.3 mph N/A   Clear
11:35 AM 46.4 °F 39.2 °F 32.0 °F 57% 29.81 in 10.0 mi West 18.4 mph 25.3 mph N/A   Clear
11:55 AM 46.4 °F 39.2 °F 32.0 °F 57% 29.81 in 10.0 mi West 18.4 mph - N/A   Clear
12:15 PM 46.4 °F 39.0 °F 32.0 °F 57% 29.81 in 10.0 mi West 19.6 mph - N/A   Clear
12:35 PM 46.4 °F 38.7 °F 32.0 °F 57% 29.81 in 10.0 mi West 20.7 mph 26.5 mph N/A   Clear
12:55 PM 46.4 °F 38.7 °F 32.0 °F 57% 29.81 in 10.0 mi West 20.7 mph - N/A   Clear
1:15 PM 50.0 °F - 32.0 °F 50% 29.81 in 10.0 mi WNW 19.6 mph 24.2 mph N/A   Clear
1:35 PM 50.0 °F - 32.0 °F 50% 29.81 in 10.0 mi WNW 19.6 mph 27.6 mph N/A   Clear
1:55 PM 50.0 °F - 32.0 °F 50% 29.81 in 10.0 mi WNW 16.1 mph 23.0 mph N/A   Clear
2:15 PM 48.2 °F - 32.0 °F 54% 29.81 in 10.0 mi West 16.1 mph 23.0 mph N/A   Clear
2:35 PM 48.2 °F - 32.0 °F 54% 29.81 in 10.0 mi West 17.3 mph - N/A   Clear
2:55 PM 50.0 °F - 32.0 °F 50% 29.81 in 10.0 mi West 17.3 mph 21.9 mph N/A   Clear
3:15 PM 50.0 °F - 32.0 °F 50% 29.81 in 10.0 mi West 18.4 mph 24.2 mph N/A   Partly Cloudy
3:35 PM 50.0 °F - 32.0 °F 50% 29.81 in 10.0 mi West 17.3 mph - N/A   Clear
3:55 PM 50.0 °F - 32.0 °F 50% 29.81 in 10.0 mi West 15.0 mph 21.9 mph N/A   Partly Cloudy
4:15 PM 48.2 °F - 32.0 °F 54% 29.81 in 10.0 mi West 13.8 mph - N/A   Partly Cloudy
4:35 PM 46.4 °F 39.8 °F 32.0 °F 57% 29.82 in 10.0 mi West 16.1 mph - N/A   Clear
4:55 PM 44.6 °F 38.4 °F 32.0 °F 61% 29.82 in 10.0 mi West 12.7 mph - N/A   Clear
5:15 PM 41.0 °F 34.3 °F 30.2 °F 65% 29.82 in 10.0 mi West 11.5 mph - N/A   Clear
5:35 PM 39.2 °F 32.0 °F 28.4 °F 65% 29.82 in 10.0 mi West 11.5 mph - N/A   Clear
5:55 PM 39.2 °F 32.5 °F 28.4 °F 65% 29.82 in 10.0 mi West 10.4 mph - N/A   Clear
6:15 PM 39.2 °F 32.0 °F 28.4 °F 65% 29.82 in 10.0 mi West 11.5 mph - N/A   Clear
6:35 PM 35.6 °F 28.6 °F 28.4 °F 75% 29.83 in 10.0 mi West 9.2 mph - N/A   Clear
6:55 PM 35.6 °F 28.0 °F 28.4 °F 75% 29.83 in 10.0 mi West 10.4 mph - N/A   Clear
7:15 PM 35.6 °F 28.6 °F 28.4 °F 75% 29.83 in 10.0 mi WNW 9.2 mph - N/A   Clear
7:35 PM 35.6 °F 29.9 °F 28.4 °F 75% 29.82 in 10.0 mi WNW 6.9 mph - N/A   Clear
7:55 PM 32.0 °F 24.8 °F 26.6 °F 80% 29.82 in 10.0 mi West 8.1 mph - N/A   Clear
8:15 PM 32.0 °F 24.8 °F 26.6 °F 80% 29.82 in 10.0 mi West 8.1 mph - N/A   Partly Cloudy
8:35 PM 33.8 °F 27.7 °F 28.4 °F 81% 29.82 in 10.0 mi West 6.9 mph - N/A   Mostly Cloudy
8:55 PM 33.8 °F 27.7 °F 28.4 °F 81% 29.83 in 10.0 mi WSW 6.9 mph - N/A   Overcast
9:15 PM 35.6 °F 29.9 °F 28.4 °F 75% 29.82 in 10.0 mi WSW 6.9 mph - N/A   Overcast
9:35 PM 33.8 °F 27.0 °F 28.4 °F 81% 29.83 in 10.0 mi WSW 8.1 mph - N/A   Overcast
9:55 PM 35.6 °F 29.2 °F 30.2 °F 81% 29.83 in 10.0 mi West 8.1 mph - N/A   Overcast
10:15 PM 37.4 °F 31.4 °F 32.0 °F 81% 29.82 in 10.0 mi WNW 8.1 mph - N/A   Overcast
10:35 PM 37.4 °F 31.4 °F 32.0 °F 81% 29.81 in 10.0 mi WNW 8.1 mph - N/A   Overcast
10:55 PM 39.2 °F 33.0 °F 32.0 °F 75% 29.80 in 10.0 mi NW 9.2 mph - N/A   Overcast
11:15 PM 39.2 °F 35.0 °F 32.0 °F 75% 29.80 in 10.0 mi NW 5.8 mph - N/A   Overcast
11:35 PM 39.2 °F 33.6 °F 32.0 °F 75% 29.80 in 10.0 mi NNW 8.1 mph - N/A   Overcast
11:55 PM 39.2 °F 34.2 °F 32.0 °F 75% 29.79 in 10.0 mi NW 6.9 mph - N/A   Overcast